Time;durP1;ratioP1;P1;durP2;ratioP2;P2;SDS_P1;SDS_P2;PMS_P1;PMS_P2;Temp;Humidity;BMP_temperature;BMP_pressure;BME280_temperature;BME280_humidity;BME280_pressure;Samples;Min_cycle;Max_cycle;Signal;HPM_P1;HPM_P2
2023/11/01 00:02:24;;;;;;;;;;;;;;;21.03;45.03;100180.92;103809;1292;62199;-82
2023/11/01 00:04:49;;;;;;;;;;;;;;;21.03;45.01;100184.46;103860;1300;62803;-82
2023/11/01 00:07:15;;;;;;;;;;;;;;;21.02;44.94;100187.59;103670;1288;62219;-82
2023/11/01 00:09:41;;;;;;;;;;;;;;;21.02;44.96;100187.94;103752;1293;62205;-82
2023/11/01 00:12:07;;;;;;;;;;;;;;;21.02;45.03;100189.74;103668;1289;62174;-82
2023/11/01 00:14:33;;;;;;;;;;;;;;;21.03;45.06;100188.98;103660;1292;62128;-82
2023/11/01 00:16:58;;;;;;;;;;;;;;;21.02;45.19;100185.45;103746;1292;62154;-82
2023/11/01 00:19:24;;;;;;;;;;;;;;;21.02;45.04;100189.71;103882;1290;62130;-82
2023/11/01 00:21:49;;;;;;;;;;;;;;;21.02;45.01;100194.73;103845;1289;62085;-81
2023/11/01 00:24:15;;;;;;;;;;;;;;;21.02;45.20;100192.56;103734;1289;63248;-82
2023/11/01 00:26:40;;;;;;;;;;;;;;;21.02;45.19;100191.91;103757;1289;62231;-82
2023/11/01 00:29:06;;;;;;;;;;;;;;;21.02;45.18;100187.40;103677;1292;62226;-82
2023/11/01 00:31:31;;;;;;;;;;;;;;;21.02;45.17;100183.33;103837;1288;62900;-82
2023/11/01 00:33:56;;;;;;;;;;;;;;;21.02;45.04;100181.70;103833;1291;62184;-82
2023/11/01 00:36:22;;;;;;;;;;;;;;;21.02;45.20;100180.29;103669;1292;62211;-82
2023/11/01 00:38:47;;;;;;;;;;;;;;;21.02;45.08;100188.15;103781;1292;62299;-82
2023/11/01 00:41:13;;;;;;;;;;;;;;;21.02;45.11;100194.40;103610;1292;62231;-82
2023/11/01 00:43:38;;;;;;;;;;;;;;;21.02;45.17;100192.25;103837;1289;62125;-82
2023/11/01 00:46:04;;;;;;;;;;;;;;;21.02;44.98;100181.55;103795;1289;62211;-82
2023/11/01 00:48:30;;;;;;;;;;;;;;;21.02;45.04;100178.16;103794;1287;62264;-82
2023/11/01 00:50:56;;;;;;;;;;;;;;;21.01;45.11;100172.64;103772;1292;62755;-82
2023/11/01 00:53:21;;;;;;;;;;;;;;;21.02;45.05;100164.20;103840;1288;62211;-83
2023/11/01 00:55:46;;;;;;;;;;;;;;;21.01;44.99;100153.83;103797;1292;62213;-83
2023/11/01 00:58:12;;;;;;;;;;;;;;;21.01;44.99;100154.90;103920;1287;62205;-83
2023/11/01 01:00:38;;;;;;;;;;;;;;;21.01;44.99;100150.61;103774;1291;62214;-83
2023/11/01 01:03:04;;;;;;;;;;;;;;;21.02;45.05;100150.79;103827;1290;62257;-82
2023/11/01 01:05:29;;;;;;;;;;;;;;;21.01;45.22;100148.30;103842;1287;62212;-83
2023/11/01 01:07:57;;;;;;;;;;;;;;;21.01;44.98;100141.52;103835;1292;62215;-83
2023/11/01 01:10:23;;;;;;;;;;;;;;;21.01;45.05;100130.94;103691;1289;72589;-83
2023/11/01 01:12:49;;;;;;;;;;;;;;;21.01;44.91;100131.14;103823;1292;63388;-83
2023/11/01 01:15:15;;;;;;;;;;;;;;;21.01;45.05;100129.34;103756;1287;62209;-82
2023/11/01 01:17:40;;;;;;;;;;;;;;;21.01;44.92;100127.37;103613;1292;63473;-82
2023/11/01 01:20:06;;;;;;;;;;;;;;;21.02;45.03;100121.09;103703;1287;62227;-82
2023/11/01 01:22:32;;;;;;;;;;;;;;;21.01;45.03;100123.63;103930;1300;62122;-82
2023/11/01 01:24:57;;;;;;;;;;;;;;;21.01;45.00;100126.33;103857;1287;75022;-82
2023/11/01 01:27:23;;;;;;;;;;;;;;;21.01;45.10;100115.06;103704;1287;62004;-82
2023/11/01 01:29:48;;;;;;;;;;;;;;;21.01;45.10;100114.70;103659;1287;62147;-82
2023/11/01 01:32:14;;;;;;;;;;;;;;;21.01;44.99;100114.87;103940;1292;62314;-82
2023/11/01 01:34:41;;;;;;;;;;;;;;;21.01;44.98;100116.85;103648;1292;62197;-82
2023/11/01 01:37:06;;;;;;;;;;;;;;;21.01;45.00;100123.29;103667;1287;62250;-82
2023/11/01 01:39:32;;;;;;;;;;;;;;;21.01;45.05;100123.31;103771;1293;62255;-82
2023/11/01 01:41:57;;;;;;;;;;;;;;;21.01;44.91;100134.24;103560;1289;62101;-82
2023/11/01 01:44:23;;;;;;;;;;;;;;;21.01;44.83;100145.13;103819;1287;62207;-82
2023/11/01 01:46:48;;;;;;;;;;;;;;;21.01;44.89;100150.09;103668;1292;62178;-82
2023/11/01 01:49:14;;;;;;;;;;;;;;;21.01;44.94;100155.66;103670;1287;62250;-82
2023/11/01 01:51:40;;;;;;;;;;;;;;;21.01;44.84;100153.16;103799;1292;62107;-82
2023/11/01 01:54:05;;;;;;;;;;;;;;;21.01;44.85;100150.30;103938;1287;62235;-82
2023/11/01 01:56:31;;;;;;;;;;;;;;;21.01;44.95;100150.84;103778;1287;62114;-82
2023/11/01 01:58:56;;;;;;;;;;;;;;;21.01;45.05;100149.77;103518;1287;62197;-82
2023/11/01 02:01:22;;;;;;;;;;;;;;;21.00;44.98;100150.51;103774;1286;62194;-82
2023/11/01 02:03:47;;;;;;;;;;;;;;;21.00;44.93;100161.60;103692;1287;62270;-82
2023/11/01 02:06:13;;;;;;;;;;;;;;;21.01;44.91;100177.14;103795;1287;63354;-82
2023/11/01 02:08:38;;;;;;;;;;;;;;;21.01;44.96;100188.93;103838;1292;62115;-82
2023/11/01 02:11:04;;;;;;;;;;;;;;;21.01;44.92;100192.71;103683;1292;62197;-82
2023/11/01 02:13:29;;;;;;;;;;;;;;;21.01;45.00;100190.23;103772;1287;62213;-82
2023/11/01 02:15:55;;;;;;;;;;;;;;;21.00;44.99;100183.41;103699;1287;62267;-82
2023/11/01 02:18:20;;;;;;;;;;;;;;;21.00;44.91;100183.08;103805;1287;62203;-82
2023/11/01 02:20:47;;;;;;;;;;;;;;;21.01;44.83;100186.45;103476;1287;374413;-81
2023/11/01 02:23:13;;;;;;;;;;;;;;;21.01;45.01;100188.79;103916;1288;62221;-81
2023/11/01 02:25:39;;;;;;;;;;;;;;;21.00;44.90;100197.39;103736;1287;62088;-82
2023/11/01 02:28:05;;;;;;;;;;;;;;;21.00;44.94;100207.25;103835;1287;62220;-82
2023/11/01 02:30:30;;;;;;;;;;;;;;;21.00;44.90;100217.95;103892;1292;62117;-82
2023/11/01 02:32:55;;;;;;;;;;;;;;;21.00;44.96;100226.02;103843;1292;62173;-81
2023/11/01 02:35:21;;;;;;;;;;;;;;;21.00;44.97;100233.17;103544;1288;74748;-82
2023/11/01 02:37:50;;;;;;;;;;;;;;;21.00;44.89;100241.77;103804;1287;62599;-82
2023/11/01 02:40:16;;;;;;;;;;;;;;;21.00;44.96;100243.38;103660;1287;62085;-82
2023/11/01 02:42:45;;;;;;;;;;;;;;;21.00;44.89;100238.57;103847;1287;62288;-83
2023/11/01 02:45:11;;;;;;;;;;;;;;;21.00;44.93;100243.58;103673;1287;75249;-82
2023/11/01 02:47:37;;;;;;;;;;;;;;;21.00;44.93;100248.73;103669;1287;62893;-82
2023/11/01 02:50:05;;;;;;;;;;;;;;;21.00;44.75;100248.23;103743;1287;62211;-83
2023/11/01 02:52:31;;;;;;;;;;;;;;;21.00;44.93;100251.80;103871;1287;72395;-83
2023/11/01 02:54:56;;;;;;;;;;;;;;;21.00;45.01;100263.21;103526;1287;62232;-82
2023/11/01 02:57:22;;;;;;;;;;;;;;;21.00;44.89;100262.55;103675;1287;62172;-82
2023/11/01 02:59:47;;;;;;;;;;;;;;;21.01;44.88;100270.89;103792;1287;62209;-82
2023/11/01 03:02:13;;;;;;;;;;;;;;;21.00;44.82;100281.12;103864;1286;62200;-82
2023/11/01 03:04:38;;;;;;;;;;;;;;;21.00;44.83;100284.20;103864;1292;73147;-82
2023/11/01 03:07:04;;;;;;;;;;;;;;;21.00;44.87;100278.07;103853;1288;63329;-81
2023/11/01 03:09:29;;;;;;;;;;;;;;;21.00;44.73;100289.86;103820;1287;62135;-81
2023/11/01 03:11:55;;;;;;;;;;;;;;;21.00;44.77;100293.11;103851;1287;62203;-81
2023/11/01 03:14:20;;;;;;;;;;;;;;;21.00;44.77;100301.88;103824;1287;62214;-82
2023/11/01 03:16:46;;;;;;;;;;;;;;;21.00;44.79;100304.78;103689;1289;72493;-82
2023/11/01 03:19:12;;;;;;;;;;;;;;;21.00;44.86;100306.39;103773;1287;62191;-82
2023/11/01 03:21:39;;;;;;;;;;;;;;;21.00;44.76;100307.09;103822;1287;62099;-82
2023/11/01 03:24:05;;;;;;;;;;;;;;;21.00;44.85;100305.66;103808;1287;62215;-81
2023/11/01 03:26:30;;;;;;;;;;;;;;;21.00;44.87;100291.90;103907;1287;62240;-82
2023/11/01 03:28:56;;;;;;;;;;;;;;;21.00;44.76;100279.92;103559;1289;62193;-82
2023/11/01 03:31:22;;;;;;;;;;;;;;;21.00;44.71;100267.05;103883;1288;63343;-82
2023/11/01 03:33:47;;;;;;;;;;;;;;;20.99;44.73;100257.04;103903;1291;62211;-82
2023/11/01 03:36:12;;;;;;;;;;;;;;;21.00;44.82;100275.46;103824;1287;62673;-82
2023/11/01 03:38:38;;;;;;;;;;;;;;;21.00;44.78;100278.29;103769;1287;62110;-82
2023/11/01 03:41:03;;;;;;;;;;;;;;;20.99;44.73;100286.03;103734;1287;62121;-82
2023/11/01 03:43:29;;;;;;;;;;;;;;;20.99;44.82;100286.02;103927;1292;62203;-82
2023/11/01 03:45:54;;;;;;;;;;;;;;;20.99;44.82;100281.07;103816;1288;62222;-82
2023/11/01 03:48:20;;;;;;;;;;;;;;;21.00;44.79;100279.56;103770;1287;62185;-82
2023/11/01 03:50:45;;;;;;;;;;;;;;;20.99;44.74;100274.25;103767;1287;62204;-82
2023/11/01 03:53:11;;;;;;;;;;;;;;;20.99;44.78;100275.85;103939;1287;62132;-82
2023/11/01 03:55:36;;;;;;;;;;;;;;;20.99;44.77;100276.02;103894;1287;62196;-82
2023/11/01 03:58:02;;;;;;;;;;;;;;;20.99;44.81;100275.70;103693;1287;62546;-82
2023/11/01 04:00:27;;;;;;;;;;;;;;;20.99;44.75;100284.46;103715;1287;63319;-81
2023/11/01 04:02:53;;;;;;;;;;;;;;;20.99;44.78;100287.48;103801;1287;62190;-82
2023/11/01 04:05:18;;;;;;;;;;;;;;;20.99;44.80;100280.70;103665;1289;63778;-82
2023/11/01 04:07:44;;;;;;;;;;;;;;;20.98;44.84;100282.34;103852;1287;60028;-82
2023/11/01 04:10:10;;;;;;;;;;;;;;;20.99;44.77;100270.15;103562;1287;62139;-82
2023/11/01 04:12:36;;;;;;;;;;;;;;;20.99;44.79;100268.91;103846;1287;62154;-82
2023/11/01 04:15:05;;;;;;;;;;;;;;;20.98;44.75;100261.59;103706;1287;62235;-82
2023/11/01 04:17:30;;;;;;;;;;;;;;;20.99;44.83;100261.20;103776;1287;74278;-82
2023/11/01 04:19:58;;;;;;;;;;;;;;;20.98;44.69;100259.27;103693;1289;62605;-82
2023/11/01 04:22:25;;;;;;;;;;;;;;;20.99;44.76;100292.14;103605;1287;62112;-82
2023/11/01 04:24:50;;;;;;;;;;;;;;;20.99;44.81;100300.17;103551;1287;62183;-82
2023/11/01 04:27:15;;;;;;;;;;;;;;;21.00;44.77;100297.81;103308;1295;62335;-82
2023/11/01 04:29:41;;;;;;;;;;;;;;;21.00;44.73;100292.59;103571;1287;62247;-81
2023/11/01 04:32:06;;;;;;;;;;;;;;;21.00;44.89;100292.73;103685;1287;62296;-82
2023/11/01 04:34:33;;;;;;;;;;;;;;;21.01;44.82;100312.02;103530;1289;62123;-81
2023/11/01 04:36:59;;;;;;;;;;;;;;;21.01;44.79;100314.91;103684;1287;62272;-81
2023/11/01 04:39:24;;;;;;;;;;;;;;;21.01;44.66;100316.81;103610;1287;62125;-82
2023/11/01 04:41:50;;;;;;;;;;;;;;;21.01;44.72;100317.20;103789;1287;62159;-82
2023/11/01 04:44:16;;;;;;;;;;;;;;;21.01;44.69;100325.40;103605;1287;62303;-82
2023/11/01 04:46:41;;;;;;;;;;;;;;;21.02;44.83;100332.39;103762;1292;62086;-82
2023/11/01 04:49:07;;;;;;;;;;;;;;;21.02;44.86;100332.36;103569;1287;62307;-82
2023/11/01 04:51:32;;;;;;;;;;;;;;;21.02;44.78;100335.91;103749;1289;62138;-81
2023/11/01 04:53:58;;;;;;;;;;;;;;;21.01;44.72;100337.73;103694;1292;62367;-81
2023/11/01 04:56:26;;;;;;;;;;;;;;;21.01;44.66;100342.58;103627;1287;63299;-82
2023/11/01 04:58:53;;;;;;;;;;;;;;;21.01;44.71;100341.70;103693;1290;62184;-82
2023/11/01 05:01:19;;;;;;;;;;;;;;;21.01;44.95;100344.77;103551;1287;75314;-82
2023/11/01 05:03:45;;;;;;;;;;;;;;;21.01;44.79;100355.11;103676;1292;62164;-82
2023/11/01 05:06:11;;;;;;;;;;;;;;;21.01;44.93;100358.16;103723;1287;62244;-82
2023/11/01 05:08:36;;;;;;;;;;;;;;;21.01;44.67;100366.04;103571;1287;62139;-81
2023/11/01 05:11:02;;;;;;;;;;;;;;;21.01;44.80;100368.90;103641;1287;62320;-81
2023/11/01 05:13:28;;;;;;;;;;;;;;;21.01;44.89;100371.58;103618;1287;62292;-82
2023/11/01 05:15:54;;;;;;;;;;;;;;;21.01;44.78;100365.51;103413;1289;62164;-82
2023/11/01 05:18:20;;;;;;;;;;;;;;;21.01;44.89;100368.38;103546;1287;62123;-82
2023/11/01 05:20:45;;;;;;;;;;;;;;;21.01;44.72;100375.19;103665;1290;62149;-81
2023/11/01 05:23:11;;;;;;;;;;;;;;;21.01;44.76;100382.68;103798;1287;63465;-81
2023/11/01 05:25:37;;;;;;;;;;;;;;;21.01;44.73;100388.39;103762;1287;62164;-81
2023/11/01 05:28:02;;;;;;;;;;;;;;;21.01;44.82;100396.44;103384;1287;63475;-81
2023/11/01 05:30:28;;;;;;;;;;;;;;;21.01;44.83;100394.33;103372;1287;63105;-82
2023/11/01 05:32:53;;;;;;;;;;;;;;;21.01;44.82;100389.83;103812;1286;62116;-82
2023/11/01 05:35:18;;;;;;;;;;;;;;;21.01;44.76;100390.53;103764;1287;62213;-82
2023/11/01 05:37:44;;;;;;;;;;;;;;;21.01;44.74;100391.24;103726;1287;62200;-82
2023/11/01 05:40:16;;;;;;;;;;;;;;;21.02;44.92;100396.94;103713;1287;62609;-82
2023/11/01 05:42:43;;;;;;;;;;;;;;;21.02;44.99;100399.23;103730;1287;62098;-82
2023/11/01 05:45:09;;;;;;;;;;;;;;;21.02;44.84;100409.05;103732;1286;72245;-82
2023/11/01 05:47:35;;;;;;;;;;;;;;;21.02;44.90;100412.64;103706;1287;62130;-82
2023/11/01 05:50:00;;;;;;;;;;;;;;;21.02;44.89;100408.55;103594;1292;62154;-82
2023/11/01 05:52:29;;;;;;;;;;;;;;;21.02;44.83;100411.21;103742;1287;62277;-82
2023/11/01 05:54:54;;;;;;;;;;;;;;;21.02;44.94;100419.14;103764;1287;62116;-82
2023/11/01 05:57:20;;;;;;;;;;;;;;;21.01;44.90;100428.81;103727;1287;62754;-82
2023/11/01 05:59:46;;;;;;;;;;;;;;;21.02;44.95;100440.90;103936;1287;62193;-82
2023/11/01 06:02:12;;;;;;;;;;;;;;;21.02;44.96;100440.38;103639;1287;61972;-82
2023/11/01 06:04:38;;;;;;;;;;;;;;;21.03;44.89;100440.30;103889;1292;62116;-82
2023/11/01 06:07:03;;;;;;;;;;;;;;;21.04;45.01;100448.83;104025;1286;62195;-82
2023/11/01 06:09:29;;;;;;;;;;;;;;;21.04;44.98;100450.58;103842;1286;75290;-82
2023/11/01 06:11:57;;;;;;;;;;;;;;;21.05;44.85;100453.95;104127;1287;62199;-82
2023/11/01 06:14:24;;;;;;;;;;;;;;;21.06;44.91;100459.45;103959;1287;62234;-82
2023/11/01 06:16:49;;;;;;;;;;;;;;;21.06;44.80;100461.02;104162;1286;62184;-82
2023/11/01 06:19:15;;;;;;;;;;;;;;;21.06;44.97;100463.66;103927;1287;62207;-82
2023/11/01 06:21:40;;;;;;;;;;;;;;;21.07;44.96;100466.13;103975;1289;62159;-82
2023/11/01 06:24:08;;;;;;;;;;;;;;;21.07;44.94;100465.01;103838;1288;63294;-82
2023/11/01 06:26:34;;;;;;;;;;;;;;;21.08;44.96;100464.77;104112;1287;62895;-82
2023/11/01 06:29:23;;;;;;;;;;;;;;;21.08;45.05;100466.71;104109;1286;72479;-82
2023/11/01 06:31:49;;;;;;;;;;;;;;;21.09;45.02;100469.73;103479;1293;75259;-82
2023/11/01 06:34:15;;;;;;;;;;;;;;;21.09;45.00;100475.23;103243;1298;62185;-82
2023/11/01 06:36:44;;;;;;;;;;;;;;;21.09;45.06;100479.75;103471;1293;62338;-82
2023/11/01 06:39:10;;;;;;;;;;;;;;;21.09;45.26;100483.09;103287;1293;72739;-82
2023/11/01 06:41:36;;;;;;;;;;;;;;;21.10;45.28;100481.12;103190;1293;62627;-81
2023/11/01 06:44:01;;;;;;;;;;;;;;;21.10;45.18;100480.41;103283;1293;62401;-82
2023/11/01 06:46:28;;;;;;;;;;;;;;;21.09;45.22;100476.66;103086;1295;62378;-82
2023/11/01 06:48:54;;;;;;;;;;;;;;;21.09;45.31;100481.86;103204;1293;62589;-82
2023/11/01 06:51:19;;;;;;;;;;;;;;;21.09;45.24;100481.16;103300;1293;62252;-82
2023/11/01 06:53:46;;;;;;;;;;;;;;;21.09;45.21;100483.09;103311;1292;62199;-82
2023/11/01 06:56:12;;;;;;;;;;;;;;;21.09;45.11;100484.42;103272;1293;62337;-82
2023/11/01 06:58:39;;;;;;;;;;;;;;;21.08;45.09;100480.88;103194;1292;62095;-82
2023/11/01 07:01:09;;;;;;;;;;;;;;;21.08;45.11;100479.44;103186;1293;72472;-82
2023/11/01 07:03:35;;;;;;;;;;;;;;;21.08;45.11;100477.12;103305;1296;74211;-81
2023/11/01 07:06:01;;;;;;;;;;;;;;;21.08;45.11;100475.34;103322;1292;63291;-81
2023/11/01 07:08:26;;;;;;;;;;;;;;;21.08;45.18;100482.31;103345;1290;62315;-81
2023/11/01 07:10:52;;;;;;;;;;;;;;;21.08;45.28;100483.07;103851;1288;62190;-82
2023/11/01 07:13:17;;;;;;;;;;;;;;;21.08;45.24;100481.78;104214;1289;62045;-81
2023/11/01 07:15:42;;;;;;;;;;;;;;;21.08;45.18;100484.08;103821;1286;75395;-81
2023/11/01 07:18:08;;;;;;;;;;;;;;;21.08;45.24;100484.46;103885;1287;62203;-81
2023/11/01 07:20:35;;;;;;;;;;;;;;;21.08;45.22;100480.86;103767;1285;62196;-81
2023/11/01 07:23:00;;;;;;;;;;;;;;;21.08;45.18;100480.70;103979;1286;63311;-81
2023/11/01 07:25:26;;;;;;;;;;;;;;;21.08;45.24;100478.36;103661;1287;62211;-81
2023/11/01 07:27:51;;;;;;;;;;;;;;;21.09;45.16;100481.55;103693;1288;62449;-81
2023/11/01 07:30:17;;;;;;;;;;;;;;;21.09;45.17;100478.14;103848;1287;62177;-81
2023/11/01 07:32:44;;;;;;;;;;;;;;;21.09;45.27;100480.83;103583;1287;62163;-81
2023/11/01 07:35:10;;;;;;;;;;;;;;;21.09;45.27;100480.66;103518;1292;62084;-81
2023/11/01 07:37:36;;;;;;;;;;;;;;;21.08;45.27;100481.76;103966;1286;62200;-81
2023/11/01 07:40:03;;;;;;;;;;;;;;;21.08;45.15;100480.86;103796;1287;62254;-81
2023/11/01 07:42:28;;;;;;;;;;;;;;;21.09;45.19;100483.86;103959;1287;62139;-81
2023/11/01 07:44:54;;;;;;;;;;;;;;;21.08;45.27;100482.47;103722;1289;62221;-81
2023/11/01 07:47:20;;;;;;;;;;;;;;;21.09;45.12;100482.95;103748;1287;62455;-81
2023/11/01 07:49:45;;;;;;;;;;;;;;;21.10;45.15;100482.56;103757;1286;62228;-81
2023/11/01 07:52:11;;;;;;;;;;;;;;;21.09;45.13;100487.59;103728;1287;62128;-82
2023/11/01 07:54:36;;;;;;;;;;;;;;;21.10;45.21;100498.98;103629;1287;62203;-82
2023/11/01 07:57:02;;;;;;;;;;;;;;;21.10;45.26;100505.09;103723;1287;62375;-82
2023/11/01 07:59:27;;;;;;;;;;;;;;;21.10;45.08;100504.73;103337;1287;62299;-82
2023/11/01 08:01:54;;;;;;;;;;;;;;;21.10;45.08;100505.25;103794;1290;62199;-82
2023/11/01 08:04:21;;;;;;;;;;;;;;;21.10;45.22;100510.80;103637;1287;62079;-82
2023/11/01 08:06:46;;;;;;;;;;;;;;;21.10;45.19;100512.24;103823;1287;62187;-82
2023/11/01 08:09:13;;;;;;;;;;;;;;;21.10;45.14;100510.23;103788;1286;62096;-81
2023/11/01 08:11:38;;;;;;;;;;;;;;;21.10;45.22;100507.74;103791;1287;63435;-81
2023/11/01 08:14:06;;;;;;;;;;;;;;;21.10;45.24;100509.17;103685;1287;63286;-81
2023/11/01 08:16:32;;;;;;;;;;;;;;;21.10;45.13;100507.02;103892;1287;62123;-81
2023/11/01 08:18:58;;;;;;;;;;;;;;;21.10;45.13;100510.41;103471;1286;62174;-81
2023/11/01 08:21:24;;;;;;;;;;;;;;;21.11;45.18;100510.92;103698;1290;62230;-81
2023/11/01 08:23:49;;;;;;;;;;;;;;;21.11;45.20;100506.27;103686;1287;63371;-81
2023/11/01 08:26:16;;;;;;;;;;;;;;;21.11;45.18;100503.08;103693;1291;62199;-82
2023/11/01 08:28:42;;;;;;;;;;;;;;;21.11;45.19;100507.88;103878;1287;62078;-82
2023/11/01 08:31:07;;;;;;;;;;;;;;;21.11;45.15;100510.56;103750;1286;62305;-82
2023/11/01 08:33:33;;;;;;;;;;;;;;;21.11;45.34;100513.59;103646;1286;62171;-82
2023/11/01 08:35:58;;;;;;;;;;;;;;;21.12;45.24;100512.32;103838;1288;62195;-82
2023/11/01 08:38:24;;;;;;;;;;;;;;;21.12;45.29;100514.63;103411;1290;62369;-82
2023/11/01 08:40:50;;;;;;;;;;;;;;;21.12;45.24;100514.09;103515;1290;62166;-82
2023/11/01 08:43:17;;;;;;;;;;;;;;;21.12;45.18;100517.65;103455;1290;62116;-82
2023/11/01 08:45:42;;;;;;;;;;;;;;;21.12;45.22;100519.23;103414;1292;62158;-82
2023/11/01 08:48:08;;;;;;;;;;;;;;;21.13;45.36;100519.77;103504;1289;62622;-81
2023/11/01 08:50:34;;;;;;;;;;;;;;;21.13;45.32;100520.08;103350;1290;62190;-82
2023/11/01 08:53:00;;;;;;;;;;;;;;;21.14;45.45;100522.52;103659;1290;62369;-82
2023/11/01 08:55:26;;;;;;;;;;;;;;;21.14;45.36;100523.38;103534;1290;62319;-81
2023/11/01 08:57:51;;;;;;;;;;;;;;;21.15;45.29;100522.06;103453;1292;62251;-81
2023/11/01 09:00:17;;;;;;;;;;;;;;;21.16;45.25;100517.72;103788;1289;62256;-82
2023/11/01 09:02:43;;;;;;;;;;;;;;;21.16;45.31;100515.01;103737;1289;62148;-81
2023/11/01 09:05:09;;;;;;;;;;;;;;;21.16;45.28;100510.69;103734;1290;62268;-82
2023/11/01 09:07:36;;;;;;;;;;;;;;;21.17;45.29;100515.45;103604;1289;62304;-83
2023/11/01 09:10:02;;;;;;;;;;;;;;;21.18;45.34;100514.53;103534;1287;62093;-82
2023/11/01 09:12:27;;;;;;;;;;;;;;;21.18;45.46;100516.27;103437;1286;63315;-82
2023/11/01 09:14:53;;;;;;;;;;;;;;;21.19;45.39;100513.52;103601;1290;62158;-82
2023/11/01 09:17:19;;;;;;;;;;;;;;;21.20;45.48;100507.75;103797;1288;63840;-82
2023/11/01 09:19:45;;;;;;;;;;;;;;;21.20;45.44;100508.73;103840;1287;62845;-81
2023/11/01 09:22:12;;;;;;;;;;;;;;;21.21;45.29;100506.91;104047;1288;62019;-82
2023/11/01 09:24:37;;;;;;;;;;;;;;;21.22;45.32;100507.05;103698;1290;62081;-82
2023/11/01 09:27:03;;;;;;;;;;;;;;;21.22;45.33;100505.05;103760;1287;62266;-82
2023/11/01 09:29:28;;;;;;;;;;;;;;;21.23;45.40;100498.89;103640;1292;62138;-82
2023/11/01 09:31:54;;;;;;;;;;;;;;;21.24;45.37;100497.41;103758;1287;62212;-82
2023/11/01 09:34:19;;;;;;;;;;;;;;;21.23;45.41;100494.02;104087;1287;62157;-82
2023/11/01 09:36:45;;;;;;;;;;;;;;;21.24;45.48;100494.84;104074;1287;62199;-82
2023/11/01 09:39:11;;;;;;;;;;;;;;;21.25;45.51;100493.88;103773;1287;62228;-80
2023/11/01 09:41:52;;;;;;;;;;;;;;;21.26;45.38;100485.80;103632;1287;62844;-80
2023/11/01 09:44:18;;;;;;;;;;;;;;;21.27;45.36;100483.05;104096;1289;62241;-81
2023/11/01 09:46:43;;;;;;;;;;;;;;;21.28;45.38;100484.76;103770;1287;63405;-80
2023/11/01 09:49:09;;;;;;;;;;;;;;;21.28;45.30;100479.56;103780;1289;62084;-81
2023/11/01 09:51:35;;;;;;;;;;;;;;;21.28;45.36;100477.39;104110;1287;62248;-80
2023/11/01 09:54:02;;;;;;;;;;;;;;;21.29;45.38;100472.31;104125;1286;62196;-80
2023/11/01 09:56:31;;;;;;;;;;;;;;;21.30;45.34;100476.92;103975;1287;62202;-80
2023/11/01 09:58:58;;;;;;;;;;;;;;;21.30;45.32;100474.92;104166;1287;72625;-80
2023/11/01 10:01:25;;;;;;;;;;;;;;;21.31;45.22;100477.55;104002;1289;62035;-80
2023/11/01 10:03:50;;;;;;;;;;;;;;;21.31;45.42;100472.90;104111;1287;62157;-80
2023/11/01 10:06:17;;;;;;;;;;;;;;;21.31;45.36;100472.88;103854;1287;62103;-80
2023/11/01 10:08:43;;;;;;;;;;;;;;;21.32;45.31;100471.58;103760;1287;63242;-82
2023/11/01 10:11:08;;;;;;;;;;;;;;;21.32;45.40;100473.17;103957;1287;62525;-82
2023/11/01 10:13:34;;;;;;;;;;;;;;;21.31;45.40;100471.61;103776;1287;62293;-82
2023/11/01 10:15:59;;;;;;;;;;;;;;;21.31;45.17;100471.96;104010;1286;62229;-82
2023/11/01 10:18:25;;;;;;;;;;;;;;;21.32;45.26;100470.70;103442;1287;62177;-82
2023/11/01 10:20:50;;;;;;;;;;;;;;;21.31;45.29;100462.70;103691;1289;62183;-81
2023/11/01 10:23:17;;;;;;;;;;;;;;;21.31;45.24;100458.95;103804;1287;62222;-82
2023/11/01 10:25:46;;;;;;;;;;;;;;;21.30;45.32;100455.77;103879;1286;62144;-82
2023/11/01 10:28:15;;;;;;;;;;;;;;;21.30;45.21;100457.75;103723;1287;62152;-82
2023/11/01 10:30:46;;;;;;;;;;;;;;;21.30;45.19;100457.57;103713;1289;72202;-82
2023/11/01 10:33:13;;;;;;;;;;;;;;;21.29;45.31;100447.25;104263;1287;75256;-82
2023/11/01 10:35:39;;;;;;;;;;;;;;;21.29;45.17;100445.29;103757;1287;62117;-82
2023/11/01 10:38:05;;;;;;;;;;;;;;;21.28;45.14;100458.25;103789;1288;62206;-82
2023/11/01 10:40:31;;;;;;;;;;;;;;;21.28;45.31;100460.44;103701;1292;62135;-82
2023/11/01 10:42:57;;;;;;;;;;;;;;;21.27;45.31;100460.50;103754;1287;62205;-83
2023/11/01 10:45:27;;;;;;;;;;;;;;;21.26;45.20;100459.30;103919;1289;62088;-83
2023/11/01 10:47:52;;;;;;;;;;;;;;;21.25;45.09;100464.35;103608;1287;63509;-82
2023/11/01 10:50:18;;;;;;;;;;;;;;;21.24;45.13;100463.90;103751;1290;62190;-82
2023/11/01 10:52:44;;;;;;;;;;;;;;;21.25;45.10;100462.98;103850;1286;62675;-82
2023/11/01 10:55:12;;;;;;;;;;;;;;;21.24;45.03;100459.81;103982;1287;62174;-82
2023/11/01 10:57:38;;;;;;;;;;;;;;;21.24;45.15;100456.09;104063;1287;62212;-81
2023/11/01 11:00:05;;;;;;;;;;;;;;;21.23;45.07;100455.05;103782;1287;63377;-81
2023/11/01 11:03:06;;;;;;;;;;;;;;;21.22;45.05;100451.53;104007;1289;62203;-81
2023/11/01 11:05:31;;;;;;;;;;;;;;;21.22;45.00;100458.88;103378;1293;62171;-81
2023/11/01 11:07:57;;;;;;;;;;;;;;;21.21;45.11;100453.95;103221;1293;62222;-81
2023/11/01 11:10:23;;;;;;;;;;;;;;;21.21;45.08;100446.09;103520;1292;62292;-81
2023/11/01 11:13:17;;;;;;;;;;;;;;;21.21;45.05;100441.64;103805;1293;63222;-81
2023/11/01 11:15:46;;;;;;;;;;;;;;;21.20;44.91;100447.59;103244;1293;62222;-81
2023/11/01 11:18:13;;;;;;;;;;;;;;;21.20;44.92;100443.45;103564;1294;63250;-81
2023/11/01 11:20:38;;;;;;;;;;;;;;;21.20;44.89;100447.95;103331;1293;62252;-81
2023/11/01 11:23:14;;;;;;;;;;;;;;;21.20;44.88;100443.83;103400;1294;62179;-81
2023/11/01 11:28:05;;;;;;;;;;;;;;;21.20;44.83;100446.34;103805;1293;62203;-80
2023/11/01 11:31:11;;;;;;;;;;;;;;;21.20;44.63;100452.06;103843;1298;62107;-80
2023/11/01 11:33:39;;;;;;;;;;;;;;;21.20;44.74;100442.76;103368;1293;75341;-80
2023/11/01 11:36:07;;;;;;;;;;;;;;;21.20;44.70;100442.38;103312;1293;62008;-80
2023/11/01 11:38:36;;;;;;;;;;;;;;;21.21;44.54;100440.93;103230;1293;62174;-81
2023/11/01 11:41:31;;;;;;;;;;;;;;;21.20;44.61;100437.92;103908;1287;72397;-80
2023/11/01 11:44:13;;;;;;;;;;;;;;;21.19;44.54;100438.17;103538;1293;75416;-81
2023/11/01 11:46:48;;;;;;;;;;;;;;;21.19;44.47;100431.75;103480;1293;62743;-81
2023/11/01 11:49:23;;;;;;;;;;;;;;;21.19;44.29;100439.98;103433;1293;62190;-81
2023/11/01 11:52:13;;;;;;;;;;;;;;;21.19;44.24;100443.42;104754;1293;72715;-81
2023/11/01 11:54:42;;;;;;;;;;;;;;;21.18;44.25;100445.06;105111;1293;74290;-81
2023/11/01 11:57:10;;;;;;;;;;;;;;;21.18;44.15;100443.95;103524;1293;62161;-81
2023/11/01 11:59:43;;;;;;;;;;;;;;;21.18;44.21;100443.80;103616;1293;62074;-81
2023/11/01 12:02:14;;;;;;;;;;;;;;;21.18;44.18;100446.29;103649;1292;62339;-81
2023/11/01 12:04:40;;;;;;;;;;;;;;;21.19;44.06;100440.91;104084;1293;75285;-81
2023/11/01 12:07:23;;;;;;;;;;;;;;;21.19;43.99;100445.91;103633;1293;62092;-81
2023/11/01 12:09:50;;;;;;;;;;;;;;;21.19;43.98;100446.61;103824;1292;62229;-81
2023/11/01 12:12:16;;;;;;;;;;;;;;;21.19;43.81;100446.45;103733;1296;72575;-81
2023/11/01 12:14:44;;;;;;;;;;;;;;;21.19;43.70;100451.08;103345;1294;62207;-81
2023/11/01 12:17:10;;;;;;;;;;;;;;;21.19;43.82;100455.38;103399;1294;63102;-81
2023/11/01 12:19:44;;;;;;;;;;;;;;;21.18;43.70;100456.48;103281;1292;62311;-81
2023/11/01 12:22:10;;;;;;;;;;;;;;;21.19;43.63;100459.87;104134;1287;72336;-81
2023/11/01 12:24:39;;;;;;;;;;;;;;;21.18;43.56;100461.36;103917;1288;62593;-81
2023/11/01 12:27:05;;;;;;;;;;;;;;;21.18;43.55;100461.52;103925;1287;63821;-81